Hollister, Oklahoma
Current Conditions -  °F | °C
As of 1:53 AM on Saturday 22 Nov 2014 (Local Time) from KFDR Reporting Station
Haze Haze  
Wind Chill: 56°   Ceiling: 400
Heat Index: 56°   Visibility: 6mi
Dew Point: 53°   Wind: 5mph
Humidity: 90%   Direction: 80°E
Pressure: 29.98"   Gusts: NA
Location:  34.34°N, 98.87°W
Report Text: KFDR 220753Z AUTO 08004KT 6SM BR BKN004 OVC015 13/12 A2998 RMK AO2 SLP145 T01330117 $
Loading
Personal Weather Stations






























Interactive Weather Map New forecast layout! Learn more

10-Day Weather Forecast

Advertisements
Track Severe Weather on mobile